createdAt,value
2018-07-22T00:01:01.281Z,82.54
2018-07-22T00:03:30.417Z,81.50
2018-07-22T00:05:59.562Z,82.01
2018-07-22T00:08:28.665Z,82.60
2018-07-22T00:10:57.849Z,82.86
2018-07-22T00:13:26.966Z,82.34
2018-07-22T00:15:56.093Z,82.19
2018-07-22T00:18:25.201Z,81.87
2018-07-22T00:20:54.309Z,80.98
2018-07-22T00:23:23.450Z,81.47
2018-07-22T00:25:52.581Z,80.96
2018-07-22T00:28:21.686Z,81.58
2018-07-22T00:30:50.817Z,82.24
2018-07-22T00:33:19.909Z,82.66
2018-07-22T00:35:49.042Z,82.56
2018-07-22T00:38:18.138Z,81.88
2018-07-22T00:40:47.321Z,81.98
2018-07-22T00:43:16.423Z,82.52
2018-07-22T00:45:45.711Z,82.52
2018-07-22T00:48:14.802Z,80.95
2018-07-22T00:50:43.910Z,81.96
2018-07-22T00:53:13.005Z,82.01
2018-07-22T00:55:42.129Z,83.07
2018-07-22T00:58:11.241Z,82.77
2018-07-22T01:00:40.357Z,83.01
2018-07-22T01:03:09.477Z,82.41
2018-07-22T01:05:38.597Z,81.08
2018-07-22T01:08:07.687Z,77.33
2018-07-22T01:10:36.841Z,79.19
2018-07-22T01:13:06.313Z,77.88
2018-07-22T01:15:35.425Z,76.72
2018-07-22T01:18:04.550Z,77.27
2018-07-22T01:20:33.665Z,75.91
2018-07-22T01:23:02.792Z,76.96
2018-07-22T01:25:31.979Z,76.56
2018-07-22T01:28:01.074Z,77.50
2018-07-22T01:30:30.206Z,76.01
2018-07-22T01:32:59.297Z,74.31
2018-07-22T01:35:28.413Z,75.63
2018-07-22T01:37:57.521Z,75.15
2018-07-22T01:40:26.630Z,75.73
2018-07-22T01:42:55.721Z,76.28
2018-07-22T01:45:24.815Z,77.42
2018-07-22T01:47:53.921Z,77.15
2018-07-22T01:50:23.039Z,74.54
2018-07-22T01:52:52.849Z,73.25
2018-07-22T01:55:21.957Z,72.78
2018-07-22T01:57:51.081Z,71.86
2018-07-22T02:00:20.202Z,72.47
2018-07-22T02:02:49.319Z,69.41
2018-07-22T02:05:18.408Z,69.63
2018-07-22T02:07:47.509Z,70.91
2018-07-22T02:10:16.617Z,67.76
2018-07-22T02:12:45.726Z,70.05
2018-07-22T02:15:14.853Z,71.21
2018-07-22T02:17:43.945Z,71.54
2018-07-22T02:20:13.049Z,70.40
2018-07-22T02:22:42.145Z,72.96
2018-07-22T02:25:11.258Z,72.62
2018-07-22T02:27:40.421Z,72.06
2018-07-22T02:30:09.930Z,73.07
2018-07-22T02:32:39.051Z,72.51
2018-07-22T02:35:08.140Z,68.18
2018-07-22T02:37:37.326Z,69.62
2018-07-22T02:40:06.485Z,69.91
2018-07-22T02:42:35.589Z,71.06
2018-07-22T02:45:04.726Z,68.96
2018-07-22T02:47:33.821Z,68.70
2018-07-22T02:50:02.981Z,69.92
2018-07-22T02:52:32.092Z,68.55
2018-07-22T02:55:01.210Z,68.16
2018-07-22T02:57:30.310Z,68.64
2018-07-22T02:59:59.466Z,68.34
2018-07-22T03:02:28.602Z,68.21
2018-07-22T03:04:57.809Z,68.88
2018-07-22T03:07:26.909Z,67.95
2018-07-22T03:09:56.023Z,70.02
2018-07-22T03:12:25.137Z,69.61
2018-07-22T03:14:54.245Z,67.74
2018-07-22T03:17:23.342Z,68.55
2018-07-22T03:19:52.427Z,68.59
2018-07-22T03:22:21.550Z,68.63
2018-07-22T03:24:50.640Z,68.84
2018-07-22T03:27:19.738Z,68.63
2018-07-22T03:29:48.843Z,68.37
2018-07-22T03:32:17.941Z,67.57
2018-07-22T03:34:47.079Z,68.75
2018-07-22T03:37:16.177Z,68.35
2018-07-22T03:39:45.273Z,69.36
2018-07-22T03:42:14.381Z,70.18
2018-07-22T03:44:43.481Z,69.69
2018-07-22T03:47:12.604Z,67.98
2018-07-22T03:49:41.693Z,69.05
2018-07-22T03:52:10.814Z,69.48
2018-07-22T03:54:39.925Z,69.75
2018-07-22T03:57:09.025Z,69.84
2018-07-22T03:59:38.125Z,69.54
2018-07-22T04:02:07.229Z,70.27
2018-07-22T04:04:36.324Z,71.49
2018-07-22T04:07:05.538Z,70.09
2018-07-22T04:09:34.554Z,70.57
2018-07-22T04:12:03.677Z,69.08
2018-07-22T04:14:32.788Z,69.95
2018-07-22T04:17:02.081Z,70.16
2018-07-22T04:19:31.190Z,69.75
2018-07-22T04:22:00.306Z,69.55
2018-07-22T04:24:29.433Z,70.12
2018-07-22T04:26:58.590Z,68.64
2018-07-22T04:29:27.673Z,71.44
2018-07-22T04:31:56.777Z,71.09
2018-07-22T04:34:25.862Z,70.19
2018-07-22T04:36:54.969Z,70.45
2018-07-22T04:39:24.079Z,70.96
2018-07-22T04:41:53.250Z,70.11
2018-07-22T04:44:22.357Z,69.25
2018-07-22T04:46:51.865Z,68.06
2018-07-22T04:49:20.960Z,69.34
2018-07-22T04:51:50.089Z,68.00
2018-07-22T04:54:19.197Z,67.77
2018-07-22T04:56:48.314Z,68.29
2018-07-22T04:59:17.414Z,68.42
2018-07-22T05:01:46.553Z,67.52
2018-07-22T05:04:15.657Z,66.89
2018-07-22T05:06:44.765Z,66.33
2018-07-22T05:09:13.969Z,68.29
2018-07-22T05:11:43.070Z,67.36
2018-07-22T05:14:12.166Z,65.69
2018-07-22T05:16:41.281Z,65.81
2018-07-22T05:19:10.381Z,67.11
2018-07-22T05:21:39.493Z,67.28
2018-07-22T05:24:08.781Z,66.76
2018-07-22T05:26:38.159Z,66.54
2018-07-22T05:29:07.578Z,66.14
2018-07-22T05:31:36.701Z,65.09
2018-07-22T05:34:06.005Z,65.93
2018-07-22T05:36:35.179Z,66.83
2018-07-22T05:39:06.425Z,65.91
2018-07-22T05:41:35.551Z,67.33
2018-07-22T05:44:04.873Z,66.04
2018-07-22T05:46:34.029Z,66.88
2018-07-22T05:49:03.297Z,65.60
2018-07-22T05:51:32.626Z,66.48
2018-07-22T05:54:01.751Z,67.72
2018-07-22T05:56:30.874Z,66.56
2018-07-22T05:58:59.961Z,66.09
2018-07-22T06:01:29.105Z,66.49
2018-07-22T06:03:58.209Z,66.61
2018-07-22T06:06:27.329Z,66.08
2018-07-22T06:08:56.421Z,66.54
2018-07-22T06:11:25.544Z,66.63
2018-07-22T06:13:54.741Z,66.76
2018-07-22T06:16:23.845Z,67.08
2018-07-22T06:18:52.982Z,67.05
2018-07-22T06:21:22.077Z,66.89
2018-07-22T06:23:51.169Z,67.12
2018-07-22T06:26:20.293Z,67.49
2018-07-22T06:28:49.388Z,66.81
2018-07-22T06:31:18.569Z,67.86
2018-07-22T06:33:47.677Z,68.19
2018-07-22T06:36:16.781Z,67.00
2018-07-22T06:38:45.881Z,67.08
2018-07-22T06:41:15.093Z,66.43
2018-07-22T06:43:44.138Z,65.99
2018-07-22T06:46:13.430Z,64.86
2018-07-22T06:48:42.502Z,65.87
2018-07-22T06:51:11.689Z,66.04
2018-07-22T06:53:40.957Z,65.07
2018-07-22T06:56:10.026Z,65.69
2018-07-22T06:58:39.249Z,64.85
2018-07-22T07:01:08.361Z,65.99
2018-07-22T07:03:37.466Z,64.19
2018-07-22T07:06:06.601Z,62.79
2018-07-22T07:08:35.717Z,61.66
2018-07-22T07:11:04.928Z,62.04
2018-07-22T07:13:33.959Z,60.93
2018-07-22T07:16:03.089Z,60.92
2018-07-22T07:18:32.305Z,61.30
2018-07-22T07:21:01.442Z,59.87
2018-07-22T07:23:30.577Z,60.48
2018-07-22T07:25:59.685Z,60.61
2018-07-22T07:28:28.814Z,58.91
2018-07-22T07:30:57.930Z,60.14
2018-07-22T07:33:27.078Z,62.39
2018-07-22T07:35:56.817Z,59.52
2018-07-22T07:38:25.973Z,56.72
2018-07-22T07:40:55.105Z,56.39
2018-07-22T07:43:24.228Z,56.43
2018-07-22T07:45:53.393Z,56.12
2018-07-22T07:48:22.569Z,56.96
2018-07-22T07:50:51.693Z,57.85
2018-07-22T07:53:20.833Z,59.47
2018-07-22T07:55:49.928Z,58.71
2018-07-22T07:58:19.193Z,57.61
2018-07-22T08:00:48.297Z,59.17
2018-07-22T08:03:17.429Z,57.03
2018-07-22T08:05:46.589Z,58.40
2018-07-22T08:08:15.709Z,58.75
2018-07-22T08:10:44.853Z,55.37
2018-07-22T08:13:13.974Z,54.64
2018-07-22T08:15:43.089Z,52.29
2018-07-22T08:18:12.226Z,53.70
2018-07-22T08:20:41.398Z,51.80
2018-07-22T08:23:10.521Z,54.52
2018-07-22T08:25:39.774Z,53.97
2018-07-22T08:28:08.906Z,54.93
2018-07-22T08:30:38.125Z,54.52
2018-07-22T08:33:07.181Z,53.36
2018-07-22T08:35:36.303Z,52.86
2018-07-22T08:38:05.505Z,53.58
2018-07-22T08:40:34.726Z,53.10
2018-07-22T08:43:03.849Z,53.05
2018-07-22T08:45:32.973Z,52.10
2018-07-22T08:48:02.093Z,52.48
2018-07-22T08:50:31.222Z,52.33
2018-07-22T08:53:00.333Z,51.73
2018-07-22T08:55:29.481Z,50.16
2018-07-22T08:57:58.749Z,49.42
2018-07-22T09:00:27.915Z,50.02
2018-07-22T09:02:57.044Z,51.99
2018-07-22T09:05:26.148Z,50.61
2018-07-22T09:07:55.257Z,49.75
2018-07-22T09:10:24.497Z,50.15
2018-07-22T09:12:53.658Z,49.60
2018-07-22T09:15:22.775Z,47.04
2018-07-22T09:17:51.990Z,47.16
2018-07-22T09:20:21.038Z,46.85
2018-07-22T09:22:50.158Z,47.42
2018-07-22T09:25:19.314Z,48.04
2018-07-22T09:27:48.450Z,45.46
2018-07-22T09:30:17.579Z,45.62
2018-07-22T09:32:46.701Z,45.80
2018-07-22T09:35:15.805Z,46.42
2018-07-22T09:37:45.061Z,45.67
2018-07-22T09:40:14.264Z,46.57
2018-07-22T09:42:43.378Z,48.00
2018-07-22T09:45:12.660Z,47.71
2018-07-22T09:47:41.762Z,47.09
2018-07-22T09:50:10.937Z,48.41
2018-07-22T09:52:40.138Z,46.80
2018-07-22T09:55:09.282Z,46.37
2018-07-22T09:57:38.509Z,45.77
2018-07-22T10:00:07.778Z,45.91
2018-07-22T10:02:36.990Z,43.04
2018-07-22T10:05:06.230Z,42.12
2018-07-22T10:07:35.343Z,42.06
2018-07-22T10:10:06.537Z,42.45
2018-07-22T10:12:35.770Z,42.88
2018-07-22T10:15:05.362Z,42.92
2018-07-22T10:17:34.537Z,40.92
2018-07-22T10:20:03.629Z,41.39
2018-07-22T10:22:33.158Z,41.11
2018-07-22T10:25:02.398Z,40.97
2018-07-22T10:27:31.583Z,39.67
2018-07-22T10:30:00.715Z,39.68
2018-07-22T10:32:29.985Z,41.50
2018-07-22T10:34:59.176Z,40.44
2018-07-22T10:37:28.389Z,41.28
2018-07-22T10:39:57.585Z,41.76
2018-07-22T10:42:26.713Z,41.68
2018-07-22T10:44:55.854Z,42.22
2018-07-22T10:47:24.983Z,41.54
2018-07-22T10:49:54.133Z,40.90
2018-07-22T10:52:23.248Z,41.40
2018-07-22T10:54:52.397Z,39.39
2018-07-22T10:57:21.505Z,40.33
2018-07-22T10:59:50.633Z,42.23
2018-07-22T11:02:19.791Z,41.90
2018-07-22T11:04:48.937Z,41.16
2018-07-22T11:07:18.048Z,42.21
2018-07-22T11:09:47.443Z,41.70
2018-07-22T11:12:16.585Z,40.85
2018-07-22T11:14:45.804Z,43.03
2018-07-22T11:17:15.018Z,39.01
2018-07-22T11:19:44.235Z,39.62
2018-07-22T11:22:13.432Z,41.18
2018-07-22T11:24:42.545Z,40.68
2018-07-22T11:27:11.746Z,40.43
2018-07-22T11:29:40.872Z,39.79
2018-07-22T11:32:10.052Z,39.97
2018-07-22T11:34:39.153Z,39.56
2018-07-22T11:37:08.302Z,39.63
2018-07-22T11:39:37.426Z,38.53
2018-07-22T11:42:06.563Z,39.40
2018-07-22T11:44:35.669Z,38.95
2018-07-22T11:47:04.804Z,38.39
2018-07-22T11:49:33.949Z,38.71
2018-07-22T11:52:03.066Z,37.95
2018-07-22T11:54:32.193Z,37.39
2018-07-22T11:57:01.322Z,36.90
2018-07-22T11:59:30.473Z,37.92
2018-07-22T12:01:59.679Z,37.12
2018-07-22T12:04:28.794Z,37.33
2018-07-22T12:06:57.982Z,37.40
2018-07-22T12:09:27.091Z,35.37
2018-07-22T12:11:56.259Z,35.09
2018-07-22T12:14:25.401Z,34.78
2018-07-22T12:16:54.529Z,36.35
2018-07-22T12:19:23.660Z,34.40
2018-07-22T12:21:52.853Z,34.81
2018-07-22T12:24:21.981Z,35.12
2018-07-22T12:26:51.110Z,35.95
2018-07-22T12:29:20.246Z,34.88
2018-07-22T12:31:49.869Z,35.48
2018-07-22T12:34:19.058Z,33.57
2018-07-22T12:36:49.267Z,34.11
2018-07-22T12:39:18.437Z,34.84
2018-07-22T12:41:47.849Z,34.68
2018-07-22T12:44:16.945Z,34.33
2018-07-22T12:46:46.081Z,33.95
2018-07-22T12:49:15.213Z,33.83
2018-07-22T12:51:44.368Z,34.81
2018-07-22T12:54:14.797Z,33.51
2018-07-22T12:56:43.975Z,33.46
2018-07-22T12:59:13.282Z,34.55
2018-07-22T13:01:43.151Z,34.41
2018-07-22T13:04:12.273Z,34.06
2018-07-22T13:06:41.426Z,34.09
2018-07-22T13:09:11.033Z,33.24
2018-07-22T13:11:41.017Z,32.96
2018-07-22T13:14:10.138Z,33.38
2018-07-22T13:16:39.268Z,33.76
2018-07-22T13:19:08.382Z,33.05
2018-07-22T13:21:37.593Z,33.21
2018-07-22T13:24:06.737Z,33.89
2018-07-22T13:26:35.875Z,34.16
2018-07-22T13:29:04.977Z,35.23
2018-07-22T13:31:34.133Z,33.34
2018-07-22T13:34:03.266Z,32.37
2018-07-22T13:36:32.377Z,32.02
2018-07-22T13:39:02.780Z,34.00
2018-07-22T13:41:31.902Z,32.95
2018-07-22T13:44:01.112Z,34.64
2018-07-22T13:46:30.242Z,35.17
2018-07-22T13:48:59.345Z,35.06
2018-07-22T13:51:28.745Z,34.89
2018-07-22T13:53:57.841Z,34.95
2018-07-22T13:56:26.981Z,34.52
2018-07-22T13:58:56.093Z,34.56
2018-07-22T14:01:25.205Z,33.99
2018-07-22T14:03:54.298Z,34.36
2018-07-22T14:06:23.420Z,33.51
2018-07-22T14:08:53.574Z,34.25
2018-07-22T14:11:22.692Z,35.21
2018-07-22T14:13:51.801Z,34.50
2018-07-22T14:16:20.929Z,33.94
2018-07-22T14:18:50.177Z,34.61
2018-07-22T14:21:19.300Z,34.85
2018-07-22T14:23:49.034Z,33.83
2018-07-22T14:26:20.011Z,34.67
2018-07-22T14:28:49.498Z,33.95
2018-07-22T14:31:18.884Z,33.49
2018-07-22T14:33:48.074Z,32.61
2018-07-22T14:36:17.210Z,32.46
2018-07-22T14:38:46.606Z,33.27
2018-07-22T14:41:16.023Z,33.29
2018-07-22T14:43:45.112Z,33.91
2018-07-22T14:46:14.742Z,34.36
2018-07-22T14:48:43.869Z,33.28
2018-07-22T14:51:13.158Z,33.52
2018-07-22T14:53:42.319Z,34.51
2018-07-22T14:56:11.410Z,33.77
2018-07-22T14:58:40.918Z,33.45
2018-07-22T15:01:12.536Z,33.56
2018-07-22T15:03:43.177Z,33.38
2018-07-22T15:06:12.874Z,34.36
2018-07-22T15:08:42.469Z,32.81
2018-07-22T15:11:11.582Z,33.85
2018-07-22T15:13:40.775Z,34.65
2018-07-22T15:16:09.953Z,34.34
2018-07-22T15:18:39.177Z,33.40
2018-07-22T15:21:08.306Z,32.44
2018-07-22T15:23:37.425Z,33.40
2018-07-22T15:26:06.649Z,31.43
2018-07-22T15:28:35.751Z,32.39
2018-07-22T15:31:04.914Z,31.67
2018-07-22T15:33:34.033Z,31.31
2018-07-22T15:36:03.153Z,31.90
2018-07-22T15:38:32.295Z,30.72
2018-07-22T15:41:01.413Z,32.12
2018-07-22T15:43:30.534Z,31.76
2018-07-22T15:45:59.670Z,31.97
2018-07-22T15:48:28.777Z,32.60
2018-07-22T15:50:57.890Z,32.00
2018-07-22T15:53:27.110Z,31.03
2018-07-22T15:55:56.269Z,31.70
2018-07-22T15:58:25.621Z,32.12
2018-07-22T16:00:54.730Z,32.31
2018-07-22T16:03:23.850Z,32.83
2018-07-22T16:05:52.961Z,32.40
2018-07-22T16:08:22.081Z,33.85
2018-07-22T16:10:52.325Z,34.43
2018-07-22T16:13:21.425Z,33.18
2018-07-22T16:15:50.548Z,33.93
2018-07-22T16:18:20.162Z,33.04
2018-07-22T16:20:49.577Z,33.32
2018-07-22T16:23:18.979Z,33.32
2018-07-22T16:25:48.109Z,32.77
2018-07-22T16:28:17.277Z,33.34
2018-07-22T16:30:46.393Z,33.46
2018-07-22T16:33:15.545Z,33.10
2018-07-22T16:35:45.179Z,35.21
2018-07-22T16:38:14.319Z,35.07
2018-07-22T16:40:43.864Z,34.69
2018-07-22T16:43:13.193Z,35.12
2018-07-22T16:45:42.883Z,35.86
2018-07-22T16:48:12.033Z,34.36
2018-07-22T16:50:41.125Z,35.10
2018-07-22T16:53:10.533Z,35.00
2018-07-22T16:55:39.661Z,34.92
2018-07-22T16:58:08.773Z,35.34
2018-07-22T17:00:37.949Z,35.09
2018-07-22T17:03:07.099Z,35.39
2018-07-22T17:05:36.221Z,36.57
2018-07-22T17:08:05.370Z,36.75
2018-07-22T17:10:34.826Z,36.43
2018-07-22T17:13:04.053Z,37.18
2018-07-22T17:15:33.186Z,37.80
2018-07-22T17:18:02.306Z,37.25
2018-07-22T17:20:31.429Z,38.02
2018-07-22T17:23:00.513Z,39.30
2018-07-22T17:25:29.706Z,39.55
2018-07-22T17:27:58.825Z,39.70
2018-07-22T17:30:27.926Z,40.25
2018-07-22T17:32:57.041Z,40.68
2018-07-22T17:35:26.157Z,41.04
2018-07-22T17:37:55.392Z,39.29
2018-07-22T17:40:24.525Z,40.57
2018-07-22T17:42:53.647Z,40.54
2018-07-22T17:45:22.753Z,40.74
2018-07-22T17:47:51.854Z,40.71
2018-07-22T17:50:20.991Z,40.75
2018-07-22T17:52:50.109Z,41.49
2018-07-22T17:55:19.245Z,40.96
2018-07-22T17:57:48.462Z,40.58
2018-07-22T18:00:17.637Z,40.78
2018-07-22T18:02:52.668Z,40.00
2018-07-22T18:05:21.633Z,40.85
2018-07-22T18:07:50.737Z,40.14
2018-07-22T18:10:19.850Z,41.23
2018-07-22T18:12:48.959Z,41.36
2018-07-22T18:15:18.216Z,42.04
2018-07-22T18:17:47.647Z,42.88
2018-07-22T18:20:16.818Z,42.56
2018-07-22T18:22:46.193Z,42.37
2018-07-22T18:25:15.794Z,42.43
2018-07-22T18:27:45.203Z,43.21
2018-07-22T18:30:14.994Z,41.76
2018-07-22T18:32:44.125Z,42.23
2018-07-22T18:35:13.257Z,42.01
2018-07-22T18:37:42.411Z,41.79
2018-07-22T18:40:11.502Z,42.15
2018-07-22T18:42:40.749Z,43.01
2018-07-22T18:45:10.142Z,43.37
2018-07-22T18:47:39.709Z,43.83
2018-07-22T18:50:08.864Z,43.48
2018-07-22T18:52:37.953Z,44.08
2018-07-22T18:55:07.146Z,43.43
2018-07-22T18:57:36.369Z,44.24
2018-07-22T19:00:05.821Z,44.57
2018-07-22T19:02:34.945Z,43.75
2018-07-22T19:05:04.205Z,44.81
2018-07-22T19:07:33.257Z,44.11
2018-07-22T19:10:02.429Z,44.49
2018-07-22T19:12:31.559Z,44.74
2018-07-22T19:15:00.782Z,44.53
2018-07-22T19:17:29.916Z,45.35
2018-07-22T19:20:04.941Z,44.41
2018-07-22T19:22:45.000Z,44.72
2018-07-22T19:25:14.256Z,45.61
2018-07-22T19:27:43.426Z,44.53
2018-07-22T19:30:13.026Z,44.46
2018-07-22T19:32:42.169Z,45.30
2018-07-22T19:35:11.293Z,45.24
2018-07-22T19:37:40.416Z,45.64
2018-07-22T19:40:09.576Z,46.18
2018-07-22T19:42:38.776Z,46.39
2018-07-22T19:45:07.962Z,45.75
2018-07-22T19:47:37.101Z,47.26
2018-07-22T19:50:06.305Z,47.34
2018-07-22T19:52:35.437Z,46.96
2018-07-22T19:55:04.638Z,47.07
2018-07-22T19:57:33.789Z,47.82
2018-07-22T20:00:04.502Z,48.25
2018-07-22T20:02:33.733Z,48.33
2018-07-22T20:05:03.265Z,48.52
2018-07-22T20:07:32.391Z,49.40
2018-07-22T20:10:01.634Z,48.10
2018-07-22T20:12:30.797Z,49.15
2018-07-22T20:14:59.939Z,50.20
2018-07-22T20:17:29.146Z,49.78
2018-07-22T20:19:58.289Z,50.98
2018-07-22T20:22:27.401Z,49.97
2018-07-22T20:24:56.548Z,50.56
2018-07-22T20:27:25.635Z,51.06
2018-07-22T20:29:54.763Z,52.06
2018-07-22T20:32:23.918Z,51.01
2018-07-22T20:34:53.057Z,51.63
2018-07-22T20:37:22.383Z,51.28
2018-07-22T20:39:51.502Z,52.40
2018-07-22T20:42:20.640Z,54.35
2018-07-22T20:44:49.781Z,52.61
2018-07-22T20:47:19.202Z,53.29
2018-07-22T20:49:48.421Z,54.01
2018-07-22T20:52:28.646Z,53.69
2018-07-22T20:54:57.821Z,54.27
2018-07-22T20:57:26.974Z,54.58
2018-07-22T20:59:56.102Z,55.50
2018-07-22T21:02:25.225Z,55.59
2018-07-22T21:04:54.361Z,54.68
2018-07-22T21:07:23.471Z,55.48
2018-07-22T21:09:55.795Z,55.68
2018-07-22T21:12:48.578Z,56.22
2018-07-22T21:15:19.084Z,55.73
2018-07-22T21:17:49.115Z,56.80
2018-07-22T21:20:19.286Z,57.59
2018-07-22T21:22:48.433Z,57.15
2018-07-22T21:25:18.006Z,56.90
2018-07-22T21:27:47.249Z,56.63
2018-07-22T21:30:16.621Z,57.56
2018-07-22T21:32:45.808Z,58.08
2018-07-22T21:35:14.974Z,58.58
2018-07-22T21:37:44.121Z,58.96
2018-07-22T21:40:13.337Z,58.23
2018-07-22T21:42:42.457Z,57.61
2018-07-22T21:45:11.629Z,58.20
2018-07-22T21:47:40.748Z,58.05
2018-07-22T21:50:09.917Z,58.11
2018-07-22T21:52:39.045Z,59.31
2018-07-22T21:55:08.206Z,58.54
2018-07-22T21:57:37.569Z,57.20
2018-07-22T22:00:13.221Z,58.18
2018-07-22T22:02:42.412Z,58.98
2018-07-22T22:05:11.538Z,59.12
2018-07-22T22:07:40.667Z,59.28
2018-07-22T22:10:09.825Z,59.18
2018-07-22T22:12:38.965Z,59.53
2018-07-22T22:15:17.749Z,58.72
2018-07-22T22:17:48.418Z,59.76
2018-07-22T22:20:18.940Z,58.93
2018-07-22T22:22:48.281Z,58.98
2018-07-22T22:25:17.742Z,58.86
2018-07-22T22:27:46.938Z,58.47
2018-07-22T22:30:16.946Z,58.84
2018-07-22T22:32:46.613Z,59.92
2018-07-22T22:35:15.745Z,60.17
2018-07-22T22:37:45.620Z,59.27
2018-07-22T22:40:15.570Z,60.80
2018-07-22T22:42:45.649Z,59.89
2018-07-22T22:45:15.397Z,62.31
2018-07-22T22:47:48.667Z,61.62
2018-07-22T22:50:17.849Z,61.87
2018-07-22T22:52:47.049Z,62.44
2018-07-22T22:55:16.182Z,62.02
2018-07-22T22:57:56.690Z,61.47
2018-07-22T23:00:25.826Z,62.28
2018-07-22T23:02:54.945Z,60.77
2018-07-22T23:05:24.057Z,61.56
2018-07-22T23:07:53.190Z,61.77
2018-07-22T23:10:22.311Z,62.86
2018-07-22T23:12:51.468Z,62.59
2018-07-22T23:15:20.645Z,62.29
2018-07-22T23:17:49.789Z,63.09
2018-07-22T23:20:18.933Z,62.63
2018-07-22T23:22:48.045Z,62.79
2018-07-22T23:25:17.210Z,63.79
2018-07-22T23:27:46.321Z,62.87
2018-07-22T23:30:15.461Z,63.74
2018-07-22T23:32:44.614Z,64.38
2018-07-22T23:35:13.746Z,64.01
2018-07-22T23:37:42.856Z,64.75
2018-07-22T23:40:12.733Z,64.20
2018-07-22T23:42:41.862Z,65.95
2018-07-22T23:45:10.989Z,64.33
2018-07-22T23:47:40.126Z,64.97
2018-07-22T23:50:09.345Z,63.47
2018-07-22T23:52:38.485Z,65.22
2018-07-22T23:55:07.617Z,63.92
2018-07-22T23:57:37.129Z,66.23
